sensor_id;sensor_type;location;lat;lon;timestamp;temperature;humidity
73112;HTU21D;61301;51.956;5.876;2023-10-09T00:01:40;19.12;58.96
73112;HTU21D;61301;51.956;5.876;2023-10-09T00:04:10;19.13;58.92
73112;HTU21D;61301;51.956;5.876;2023-10-09T00:06:37;19.15;58.87
73112;HTU21D;61301;51.956;5.876;2023-10-09T00:09:07;19.17;58.83
73112;HTU21D;61301;51.956;5.876;2023-10-09T00:11:42;19.17;58.77
73112;HTU21D;61301;51.956;5.876;2023-10-09T00:14:11;19.20;58.77
73112;HTU21D;61301;51.956;5.876;2023-10-09T00:16:37;19.21;58.70
73112;HTU21D;61301;51.956;5.876;2023-10-09T00:19:13;19.23;58.67
73112;HTU21D;61301;51.956;5.876;2023-10-09T00:22:03;19.22;58.70
73112;HTU21D;61301;51.956;5.876;2023-10-09T00:24:46;19.18;58.77
73112;HTU21D;61301;51.956;5.876;2023-10-09T00:27:16;19.14;58.95
73112;HTU21D;61301;51.956;5.876;2023-10-09T00:29:46;19.13;59.11
73112;HTU21D;61301;51.956;5.876;2023-10-09T00:32:12;19.13;59.16
73112;HTU21D;61301;51.956;5.876;2023-10-09T00:34:49;19.14;59.16
73112;HTU21D;61301;51.956;5.876;2023-10-09T00:37:18;19.15;59.08
73112;HTU21D;61301;51.956;5.876;2023-10-09T00:39:49;19.12;59.12
73112;HTU21D;61301;51.956;5.876;2023-10-09T00:42:22;19.10;59.13
73112;HTU21D;61301;51.956;5.876;2023-10-09T00:45:04;19.08;59.17
73112;HTU21D;61301;51.956;5.876;2023-10-09T00:47:34;19.06;59.25
73112;HTU21D;61301;51.956;5.876;2023-10-09T00:50:08;19.05;59.25
73112;HTU21D;61301;51.956;5.876;2023-10-09T00:52:44;19.03;59.19
73112;HTU21D;61301;51.956;5.876;2023-10-09T00:55:15;19.13;58.89
73112;HTU21D;61301;51.956;5.876;2023-10-09T00:57:51;19.02;59.31
73112;HTU21D;61301;51.956;5.876;2023-10-09T01:00:24;19.01;59.25
73112;HTU21D;61301;51.956;5.876;2023-10-09T01:03:10;19.06;59.24
73112;HTU21D;61301;51.956;5.876;2023-10-09T01:05:43;19.08;59.15
73112;HTU21D;61301;51.956;5.876;2023-10-09T01:08:21;19.13;59.08
73112;HTU21D;61301;51.956;5.876;2023-10-09T01:11:01;19.10;59.03
73112;HTU21D;61301;51.956;5.876;2023-10-09T01:13:48;19.06;59.13
73112;HTU21D;61301;51.956;5.876;2023-10-09T01:16:15;19.07;59.11
73112;HTU21D;61301;51.956;5.876;2023-10-09T01:18:42;19.07;59.03
73112;HTU21D;61301;51.956;5.876;2023-10-09T01:21:10;19.07;59.04
73112;HTU21D;61301;51.956;5.876;2023-10-09T01:23:41;19.09;59.03
73112;HTU21D;61301;51.956;5.876;2023-10-09T01:26:25;19.07;59.12
73112;HTU21D;61301;51.956;5.876;2023-10-09T01:28:51;19.07;59.10
73112;HTU21D;61301;51.956;5.876;2023-10-09T01:31:24;19.06;59.15
73112;HTU21D;61301;51.956;5.876;2023-10-09T01:33:55;19.07;59.22
73112;HTU21D;61301;51.956;5.876;2023-10-09T01:36:28;19.09;59.22
73112;HTU21D;61301;51.956;5.876;2023-10-09T01:39:01;19.09;59.25
73112;HTU21D;61301;51.956;5.876;2023-10-09T01:41:48;19.11;59.25
73112;HTU21D;61301;51.956;5.876;2023-10-09T01:44:18;19.16;59.09
73112;HTU21D;61301;51.956;5.876;2023-10-09T01:46:44;19.21;59.06
73112;HTU21D;61301;51.956;5.876;2023-10-09T01:49:13;19.22;59.11
73112;HTU21D;61301;51.956;5.876;2023-10-09T01:51:47;19.21;59.16
73112;HTU21D;61301;51.956;5.876;2023-10-09T01:54:17;19.25;59.14
73112;HTU21D;61301;51.956;5.876;2023-10-09T01:57:00;19.26;59.19
73112;HTU21D;61301;51.956;5.876;2023-10-09T01:59:35;19.31;59.13
73112;HTU21D;61301;51.956;5.876;2023-10-09T02:02:05;19.35;59.12
73112;HTU21D;61301;51.956;5.876;2023-10-09T02:04:52;19.38;59.22
73112;HTU21D;61301;51.956;5.876;2023-10-09T02:07:20;19.40;59.16
73112;HTU21D;61301;51.956;5.876;2023-10-09T02:09:55;19.42;59.17
73112;HTU21D;61301;51.956;5.876;2023-10-09T02:12:22;19.42;59.23
73112;HTU21D;61301;51.956;5.876;2023-10-09T02:14:50;19.44;59.22
73112;HTU21D;61301;51.956;5.876;2023-10-09T02:17:19;19.51;59.06
73112;HTU21D;61301;51.956;5.876;2023-10-09T02:19:46;19.50;59.09
73112;HTU21D;61301;51.956;5.876;2023-10-09T02:22:15;19.52;59.13
73112;HTU21D;61301;51.956;5.876;2023-10-09T02:24:43;19.54;59.30
73112;HTU21D;61301;51.956;5.876;2023-10-09T02:27:25;19.55;59.28
73112;HTU21D;61301;51.956;5.876;2023-10-09T02:30:11;19.58;59.23
73112;HTU21D;61301;51.956;5.876;2023-10-09T02:33:07;19.58;59.21
73112;HTU21D;61301;51.956;5.876;2023-10-09T02:35:34;19.59;59.25
73112;HTU21D;61301;51.956;5.876;2023-10-09T02:38:09;19.59;59.22
73112;HTU21D;61301;51.956;5.876;2023-10-09T02:40:41;19.62;59.17
73112;HTU21D;61301;51.956;5.876;2023-10-09T02:43:29;19.65;59.13
73112;HTU21D;61301;51.956;5.876;2023-10-09T02:46:02;19.68;59.12
73112;HTU21D;61301;51.956;5.876;2023-10-09T02:48:39;19.65;59.20
73112;HTU21D;61301;51.956;5.876;2023-10-09T02:51:12;19.65;59.26
73112;HTU21D;61301;51.956;5.876;2023-10-09T02:53:43;19.67;59.27
73112;HTU21D;61301;51.956;5.876;2023-10-09T02:56:09;19.67;59.28
73112;HTU21D;61301;51.956;5.876;2023-10-09T02:58:39;19.67;59.28
73112;HTU21D;61301;51.956;5.876;2023-10-09T03:01:12;19.70;59.34
73112;HTU21D;61301;51.956;5.876;2023-10-09T03:03:42;19.70;59.34
73112;HTU21D;61301;51.956;5.876;2023-10-09T03:06:16;19.72;59.36
73112;HTU21D;61301;51.956;5.876;2023-10-09T03:08:50;19.74;59.31
73112;HTU21D;61301;51.956;5.876;2023-10-09T03:11:16;19.75;59.38
73112;HTU21D;61301;51.956;5.876;2023-10-09T03:13:44;19.77;59.44
73112;HTU21D;61301;51.956;5.876;2023-10-09T03:16:11;19.81;59.46
73112;HTU21D;61301;51.956;5.876;2023-10-09T03:18:54;19.88;59.41
73112;HTU21D;61301;51.956;5.876;2023-10-09T03:21:20;19.85;59.41
73112;HTU21D;61301;51.956;5.876;2023-10-09T03:23:47;19.89;59.39
73112;HTU21D;61301;51.956;5.876;2023-10-09T03:26:19;19.91;59.52
73112;HTU21D;61301;51.956;5.876;2023-10-09T03:28:46;19.91;59.50
73112;HTU21D;61301;51.956;5.876;2023-10-09T03:31:13;19.91;59.59
73112;HTU21D;61301;51.956;5.876;2023-10-09T03:33:40;19.92;59.62
73112;HTU21D;61301;51.956;5.876;2023-10-09T03:36:07;19.92;59.94
73112;HTU21D;61301;51.956;5.876;2023-10-09T03:38:38;19.97;60.11
73112;HTU21D;61301;51.956;5.876;2023-10-09T03:41:05;19.97;59.95
73112;HTU21D;61301;51.956;5.876;2023-10-09T03:43:35;19.99;60.12
73112;HTU21D;61301;51.956;5.876;2023-10-09T03:46:10;20.01;60.05
73112;HTU21D;61301;51.956;5.876;2023-10-09T03:49:08;20.02;59.96
73112;HTU21D;61301;51.956;5.876;2023-10-09T03:51:38;20.02;59.97
73112;HTU21D;61301;51.956;5.876;2023-10-09T03:54:05;20.06;59.90
73112;HTU21D;61301;51.956;5.876;2023-10-09T03:56:35;20.07;59.92
73112;HTU21D;61301;51.956;5.876;2023-10-09T03:59:01;20.09;59.93
73112;HTU21D;61301;51.956;5.876;2023-10-09T04:01:29;20.07;59.95
73112;HTU21D;61301;51.956;5.876;2023-10-09T04:03:56;20.05;60.00
73112;HTU21D;61301;51.956;5.876;2023-10-09T04:06:26;20.13;59.98
73112;HTU21D;61301;51.956;5.876;2023-10-09T04:09:03;20.13;60.08
73112;HTU21D;61301;51.956;5.876;2023-10-09T04:11:47;20.16;60.03
73112;HTU21D;61301;51.956;5.876;2023-10-09T04:14:16;20.15;60.21
73112;HTU21D;61301;51.956;5.876;2023-10-09T04:16:52;20.16;60.31
73112;HTU21D;61301;51.956;5.876;2023-10-09T04:19:18;20.19;60.25
73112;HTU21D;61301;51.956;5.876;2023-10-09T04:21:48;20.22;60.72
73112;HTU21D;61301;51.956;5.876;2023-10-09T04:24:14;20.24;60.79
73112;HTU21D;61301;51.956;5.876;2023-10-09T04:26:41;20.27;60.65
73112;HTU21D;61301;51.956;5.876;2023-10-09T04:29:12;20.29;60.49
73112;HTU21D;61301;51.956;5.876;2023-10-09T04:31:58;20.34;60.43
73112;HTU21D;61301;51.956;5.876;2023-10-09T04:34:27;20.33;60.33
73112;HTU21D;61301;51.956;5.876;2023-10-09T04:37:16;20.37;60.66
73112;HTU21D;61301;51.956;5.876;2023-10-09T04:40:00;20.35;60.70
73112;HTU21D;61301;51.956;5.876;2023-10-09T04:42:36;20.40;60.59
73112;HTU21D;61301;51.956;5.876;2023-10-09T04:45:07;20.42;60.55
73112;HTU21D;61301;51.956;5.876;2023-10-09T04:47:34;20.45;60.56
73112;HTU21D;61301;51.956;5.876;2023-10-09T04:50:07;20.48;60.46
73112;HTU21D;61301;51.956;5.876;2023-10-09T04:52:43;20.47;60.56
73112;HTU21D;61301;51.956;5.876;2023-10-09T04:55:08;20.49;60.57
73112;HTU21D;61301;51.956;5.876;2023-10-09T04:57:41;20.54;60.64
73112;HTU21D;61301;51.956;5.876;2023-10-09T05:03:02;20.51;60.47
73112;HTU21D;61301;51.956;5.876;2023-10-09T05:05:39;20.55;60.36
73112;HTU21D;61301;51.956;5.876;2023-10-09T05:08:13;20.57;60.38
73112;HTU21D;61301;51.956;5.876;2023-10-09T05:10:59;20.59;60.42
73112;HTU21D;61301;51.956;5.876;2023-10-09T05:16:14;20.57;60.86
73112;HTU21D;61301;51.956;5.876;2023-10-09T05:18:58;20.58;60.88
73112;HTU21D;61301;51.956;5.876;2023-10-09T05:21:53;20.61;60.86
73112;HTU21D;61301;51.956;5.876;2023-10-09T05:24:24;20.61;60.86
73112;HTU21D;61301;51.956;5.876;2023-10-09T05:26:52;20.61;60.76
73112;HTU21D;61301;51.956;5.876;2023-10-09T05:29:24;20.62;60.93
73112;HTU21D;61301;51.956;5.876;2023-10-09T05:32:00;20.63;60.87
73112;HTU21D;61301;51.956;5.876;2023-10-09T05:34:26;20.64;60.76
73112;HTU21D;61301;51.956;5.876;2023-10-09T05:37:11;20.63;60.79
73112;HTU21D;61301;51.956;5.876;2023-10-09T05:39:57;20.66;60.71
73112;HTU21D;61301;51.956;5.876;2023-10-09T05:42:27;20.68;60.67
73112;HTU21D;61301;51.956;5.876;2023-10-09T05:45:13;20.71;60.66
73112;HTU21D;61301;51.956;5.876;2023-10-09T05:47:57;20.73;60.63
73112;HTU21D;61301;51.956;5.876;2023-10-09T05:50:28;20.72;60.64
73112;HTU21D;61301;51.956;5.876;2023-10-09T05:52:56;20.72;60.62
73112;HTU21D;61301;51.956;5.876;2023-10-09T05:55:23;20.72;60.67
73112;HTU21D;61301;51.956;5.876;2023-10-09T05:58:20;20.70;60.68
73112;HTU21D;61301;51.956;5.876;2023-10-09T06:01:04;20.72;61.11
73112;HTU21D;61301;51.956;5.876;2023-10-09T06:03:48;20.70;61.28
73112;HTU21D;61301;51.956;5.876;2023-10-09T06:06:15;20.74;61.20
73112;HTU21D;61301;51.956;5.876;2023-10-09T06:09:03;20.78;61.30
73112;HTU21D;61301;51.956;5.876;2023-10-09T06:11:50;20.79;61.18
73112;HTU21D;61301;51.956;5.876;2023-10-09T06:14:22;20.83;61.07
73112;HTU21D;61301;51.956;5.876;2023-10-09T06:17:11;20.87;60.94
73112;HTU21D;61301;51.956;5.876;2023-10-09T06:19:40;20.90;60.86
73112;HTU21D;61301;51.956;5.876;2023-10-09T06:22:10;20.92;60.86
73112;HTU21D;61301;51.956;5.876;2023-10-09T06:25:05;20.91;60.84
73112;HTU21D;61301;51.956;5.876;2023-10-09T06:27:38;20.92;60.83
73112;HTU21D;61301;51.956;5.876;2023-10-09T06:30:22;20.94;60.89
73112;HTU21D;61301;51.956;5.876;2023-10-09T06:32:52;20.92;61.39
73112;HTU21D;61301;51.956;5.876;2023-10-09T06:35:38;20.84;61.81
73112;HTU21D;61301;51.956;5.876;2023-10-09T06:38:05;20.85;61.68
73112;HTU21D;61301;51.956;5.876;2023-10-09T06:40:59;20.88;61.54
73112;HTU21D;61301;51.956;5.876;2023-10-09T06:43:31;20.86;61.51
73112;HTU21D;61301;51.956;5.876;2023-10-09T06:46:03;20.89;61.39
73112;HTU21D;61301;51.956;5.876;2023-10-09T06:48:47;20.93;61.31
73112;HTU21D;61301;51.956;5.876;2023-10-09T06:51:22;20.93;61.34
73112;HTU21D;61301;51.956;5.876;2023-10-09T06:53:52;20.98;61.25
73112;HTU21D;61301;51.956;5.876;2023-10-09T06:56:21;21.00;61.19
73112;HTU21D;61301;51.956;5.876;2023-10-09T06:59:04;21.03;61.35
73112;HTU21D;61301;51.956;5.876;2023-10-09T07:01:42;21.00;61.25
73112;HTU21D;61301;51.956;5.876;2023-10-09T07:04:09;21.00;61.24
73112;HTU21D;61301;51.956;5.876;2023-10-09T07:06:53;21.02;61.19
73112;HTU21D;61301;51.956;5.876;2023-10-09T07:09:22;21.05;61.15
73112;HTU21D;61301;51.956;5.876;2023-10-09T07:11:50;21.05;61.22
73112;HTU21D;61301;51.956;5.876;2023-10-09T07:14:18;21.10;61.12
73112;HTU21D;61301;51.956;5.876;2023-10-09T07:17:00;21.17;61.07
73112;HTU21D;61301;51.956;5.876;2023-10-09T07:19:29;21.21;60.99
73112;HTU21D;61301;51.956;5.876;2023-10-09T07:22:12;21.24;61.03
73112;HTU21D;61301;51.956;5.876;2023-10-09T07:24:56;21.27;61.01
73112;HTU21D;61301;51.956;5.876;2023-10-09T07:27:23;21.30;60.97
73112;HTU21D;61301;51.956;5.876;2023-10-09T07:30:08;21.39;60.71
73112;HTU21D;61301;51.956;5.876;2023-10-09T07:33:01;21.50;60.48
73112;HTU21D;61301;51.956;5.876;2023-10-09T07:35:34;21.50;60.61
73112;HTU21D;61301;51.956;5.876;2023-10-09T07:38:09;21.55;60.61
73112;HTU21D;61301;51.956;5.876;2023-10-09T07:40:36;21.58;60.57
73112;HTU21D;61301;51.956;5.876;2023-10-09T07:43:25;21.64;60.65
73112;HTU21D;61301;51.956;5.876;2023-10-09T07:46:08;21.70;60.65
73112;HTU21D;61301;51.956;5.876;2023-10-09T07:48:56;21.67;60.85
73112;HTU21D;61301;51.956;5.876;2023-10-09T07:51:25;21.73;60.84
73112;HTU21D;61301;51.956;5.876;2023-10-09T07:53:59;21.64;61.18
73112;HTU21D;61301;51.956;5.876;2023-10-09T07:56:35;21.55;61.52
73112;HTU21D;61301;51.956;5.876;2023-10-09T07:59:08;21.52;61.73
73112;HTU21D;61301;51.956;5.876;2023-10-09T08:01:41;21.73;61.21
73112;HTU21D;61301;51.956;5.876;2023-10-09T08:04:28;21.78;60.99
73112;HTU21D;61301;51.956;5.876;2023-10-09T08:07:10;21.81;61.18
73112;HTU21D;61301;51.956;5.876;2023-10-09T08:09:45;21.89;60.93
73112;HTU21D;61301;51.956;5.876;2023-10-09T08:12:15;21.89;60.95
73112;HTU21D;61301;51.956;5.876;2023-10-09T08:14:59;21.97;60.76
73112;HTU21D;61301;51.956;5.876;2023-10-09T08:17:46;22.03;60.84
73112;HTU21D;61301;51.956;5.876;2023-10-09T08:20:31;22.10;60.89
73112;HTU21D;61301;51.956;5.876;2023-10-09T08:23:15;22.14;60.97
73112;HTU21D;61301;51.956;5.876;2023-10-09T08:26:02;22.24;61.05
73112;HTU21D;61301;51.956;5.876;2023-10-09T08:28:44;22.27;60.96
73112;HTU21D;61301;51.956;5.876;2023-10-09T08:31:18;22.29;60.93
73112;HTU21D;61301;51.956;5.876;2023-10-09T08:34:13;22.33;60.93
73112;HTU21D;61301;51.956;5.876;2023-10-09T08:36:52;22.39;60.69
73112;HTU21D;61301;51.956;5.876;2023-10-09T08:39:20;22.42;60.69
73112;HTU21D;61301;51.956;5.876;2023-10-09T08:41:54;22.44;60.81
73112;HTU21D;61301;51.956;5.876;2023-10-09T08:44:24;22.52;60.73
73112;HTU21D;61301;51.956;5.876;2023-10-09T08:46:55;22.56;60.76
73112;HTU21D;61301;51.956;5.876;2023-10-09T08:49:21;22.62;60.63
73112;HTU21D;61301;51.956;5.876;2023-10-09T08:51:47;22.70;60.51
73112;HTU21D;61301;51.956;5.876;2023-10-09T08:54:14;22.78;60.40
73112;HTU21D;61301;51.956;5.876;2023-10-09T08:56:41;22.84;60.32
73112;HTU21D;61301;51.956;5.876;2023-10-09T08:59:18;22.90;60.31
73112;HTU21D;61301;51.956;5.876;2023-10-09T09:01:46;22.93;60.18
73112;HTU21D;61301;51.956;5.876;2023-10-09T09:04:33;23.08;59.70
73112;HTU21D;61301;51.956;5.876;2023-10-09T09:06:59;23.06;59.42
73112;HTU21D;61301;51.956;5.876;2023-10-09T09:09:29;23.06;59.40
73112;HTU21D;61301;51.956;5.876;2023-10-09T09:11:57;23.05;59.52
73112;HTU21D;61301;51.956;5.876;2023-10-09T09:14:36;23.09;59.46
73112;HTU21D;61301;51.956;5.876;2023-10-09T09:17:06;23.05;59.04
73112;HTU21D;61301;51.956;5.876;2023-10-09T09:19:37;23.06;59.11
73112;HTU21D;61301;51.956;5.876;2023-10-09T09:22:04;23.10;59.13
73112;HTU21D;61301;51.956;5.876;2023-10-09T09:24:41;23.18;58.90
73112;HTU21D;61301;51.956;5.876;2023-10-09T09:27:44;23.26;58.90
73112;HTU21D;61301;51.956;5.876;2023-10-09T09:30:28;23.29;59.04
73112;HTU21D;61301;51.956;5.876;2023-10-09T09:33:20;23.41;58.93
73112;HTU21D;61301;51.956;5.876;2023-10-09T09:36:00;23.45;58.99
73112;HTU21D;61301;51.956;5.876;2023-10-09T09:38:31;23.49;59.07
73112;HTU21D;61301;51.956;5.876;2023-10-09T09:41:17;23.55;58.77
73112;HTU21D;61301;51.956;5.876;2023-10-09T09:43:57;23.61;58.69
73112;HTU21D;61301;51.956;5.876;2023-10-09T09:46:35;23.73;58.31
73112;HTU21D;61301;51.956;5.876;2023-10-09T09:49:04;23.75;58.35
73112;HTU21D;61301;51.956;5.876;2023-10-09T09:51:32;23.69;58.19
73112;HTU21D;61301;51.956;5.876;2023-10-09T09:53:58;23.76;58.32
73112;HTU21D;61301;51.956;5.876;2023-10-09T09:56:25;23.87;58.15
73112;HTU21D;61301;51.956;5.876;2023-10-09T09:58:51;23.94;58.10
73112;HTU21D;61301;51.956;5.876;2023-10-09T10:01:30;24.05;57.84
73112;HTU21D;61301;51.956;5.876;2023-10-09T10:04:12;24.15;57.77
73112;HTU21D;61301;51.956;5.876;2023-10-09T10:06:43;24.23;57.84
73112;HTU21D;61301;51.956;5.876;2023-10-09T10:09:34;24.43;57.55
73112;HTU21D;61301;51.956;5.876;2023-10-09T10:12:13;24.47;57.16
73112;HTU21D;61301;51.956;5.876;2023-10-09T10:14:54;24.54;56.77
73112;HTU21D;61301;51.956;5.876;2023-10-09T10:17:25;24.45;56.90
73112;HTU21D;61301;51.956;5.876;2023-10-09T10:20:19;24.58;56.37
73112;HTU21D;61301;51.956;5.876;2023-10-09T10:22:45;24.47;56.34
73112;HTU21D;61301;51.956;5.876;2023-10-09T10:28:20;24.53;56.32
73112;HTU21D;61301;51.956;5.876;2023-10-09T10:31:06;24.51;56.53
73112;HTU21D;61301;51.956;5.876;2023-10-09T10:36:24;24.55;56.02
73112;HTU21D;61301;51.956;5.876;2023-10-09T10:39:00;24.69;56.07
73112;HTU21D;61301;51.956;5.876;2023-10-09T10:41:30;24.68;56.05
73112;HTU21D;61301;51.956;5.876;2023-10-09T10:44:02;24.78;56.16
73112;HTU21D;61301;51.956;5.876;2023-10-09T10:46:48;24.85;55.92
73112;HTU21D;61301;51.956;5.876;2023-10-09T10:49:20;24.86;55.84
73112;HTU21D;61301;51.956;5.876;2023-10-09T10:51:50;24.91;55.81
73112;HTU21D;61301;51.956;5.876;2023-10-09T10:54:27;24.94;55.78
73112;HTU21D;61301;51.956;5.876;2023-10-09T10:56:59;24.95;55.41
73112;HTU21D;61301;51.956;5.876;2023-10-09T10:59:39;25.01;55.11
73112;HTU21D;61301;51.956;5.876;2023-10-09T11:02:11;24.98;54.89
73112;HTU21D;61301;51.956;5.876;2023-10-09T11:04:38;24.99;55.13
73112;HTU21D;61301;51.956;5.876;2023-10-09T11:07:11;25.07;54.84
73112;HTU21D;61301;51.956;5.876;2023-10-09T11:09:52;25.02;54.90
73112;HTU21D;61301;51.956;5.876;2023-10-09T11:15:06;25.29;54.83
73112;HTU21D;61301;51.956;5.876;2023-10-09T11:17:35;25.43;54.68
73112;HTU21D;61301;51.956;5.876;2023-10-09T11:20:03;25.52;54.30
73112;HTU21D;61301;51.956;5.876;2023-10-09T11:22:50;25.40;54.62
73112;HTU21D;61301;51.956;5.876;2023-10-09T11:25:43;25.65;53.88
73112;HTU21D;61301;51.956;5.876;2023-10-09T11:28:20;25.61;53.03
73112;HTU21D;61301;51.956;5.876;2023-10-09T11:31:09;25.61;53.74
73112;HTU21D;61301;51.956;5.876;2023-10-09T11:33:47;25.65;53.77
73112;HTU21D;61301;51.956;5.876;2023-10-09T11:36:21;25.64;53.39
73112;HTU21D;61301;51.956;5.876;2023-10-09T11:38:58;25.64;53.21
73112;HTU21D;61301;51.956;5.876;2023-10-09T11:41:44;25.60;53.38
73112;HTU21D;61301;51.956;5.876;2023-10-09T11:44:11;25.63;53.54
73112;HTU21D;61301;51.956;5.876;2023-10-09T11:47:00;25.75;53.45
73112;HTU21D;61301;51.956;5.876;2023-10-09T11:49:56;25.84;52.53
73112;HTU21D;61301;51.956;5.876;2023-10-09T11:52:26;25.80;52.61
73112;HTU21D;61301;51.956;5.876;2023-10-09T11:55:02;25.80;52.47
73112;HTU21D;61301;51.956;5.876;2023-10-09T11:57:29;25.77;52.49
73112;HTU21D;61301;51.956;5.876;2023-10-09T11:59:59;25.79;52.48
73112;HTU21D;61301;51.956;5.876;2023-10-09T12:02:26;25.82;52.49
73112;HTU21D;61301;51.956;5.876;2023-10-09T12:04:53;25.87;52.55
73112;HTU21D;61301;51.956;5.876;2023-10-09T12:07:23;25.88;52.25
73112;HTU21D;61301;51.956;5.876;2023-10-09T12:09:51;25.94;52.41
73112;HTU21D;61301;51.956;5.876;2023-10-09T12:12:22;26.06;52.47
73112;HTU21D;61301;51.956;5.876;2023-10-09T12:14:52;26.20;52.56
73112;HTU21D;61301;51.956;5.876;2023-10-09T12:17:18;26.31;52.21
73112;HTU21D;61301;51.956;5.876;2023-10-09T12:19:44;26.28;51.15
73112;HTU21D;61301;51.956;5.876;2023-10-09T12:22:10;26.13;51.36
73112;HTU21D;61301;51.956;5.876;2023-10-09T12:24:42;26.10;51.59
73112;HTU21D;61301;51.956;5.876;2023-10-09T12:27:11;26.06;51.91
73112;HTU21D;61301;51.956;5.876;2023-10-09T12:29:37;26.10;51.95
73112;HTU21D;61301;51.956;5.876;2023-10-09T12:32:04;26.16;51.36
73112;HTU21D;61301;51.956;5.876;2023-10-09T12:34:31;26.08;51.29
73112;HTU21D;61301;51.956;5.876;2023-10-09T12:36:57;26.11;51.46
73112;HTU21D;61301;51.956;5.876;2023-10-09T12:39:27;26.15;51.12
73112;HTU21D;61301;51.956;5.876;2023-10-09T12:42:00;26.17;51.51
73112;HTU21D;61301;51.956;5.876;2023-10-09T12:44:33;26.20;51.43
73112;HTU21D;61301;51.956;5.876;2023-10-09T12:47:08;26.18;51.43
73112;HTU21D;61301;51.956;5.876;2023-10-09T12:49:37;26.18;50.71
73112;HTU21D;61301;51.956;5.876;2023-10-09T12:52:09;26.09;50.79
73112;HTU21D;61301;51.956;5.876;2023-10-09T12:54:44;26.12;51.03
73112;HTU21D;61301;51.956;5.876;2023-10-09T12:57:13;26.12;50.97
73112;HTU21D;61301;51.956;5.876;2023-10-09T12:59:40;26.09;50.79
73112;HTU21D;61301;51.956;5.876;2023-10-09T13:02:19;26.10;50.75
73112;HTU21D;61301;51.956;5.876;2023-10-09T13:04:55;26.18;50.63
73112;HTU21D;61301;51.956;5.876;2023-10-09T13:07:21;26.06;51.38
73112;HTU21D;61301;51.956;5.876;2023-10-09T13:09:48;26.16;50.76
73112;HTU21D;61301;51.956;5.876;2023-10-09T13:12:33;26.06;50.67
73112;HTU21D;61301;51.956;5.876;2023-10-09T13:14:59;26.04;50.94
73112;HTU21D;61301;51.956;5.876;2023-10-09T13:17:25;26.08;51.18
73112;HTU21D;61301;51.956;5.876;2023-10-09T13:19:53;26.08;51.14
73112;HTU21D;61301;51.956;5.876;2023-10-09T13:22:20;25.99;51.11
73112;HTU21D;61301;51.956;5.876;2023-10-09T13:24:48;25.97;51.11
73112;HTU21D;61301;51.956;5.876;2023-10-09T13:27:18;26.01;51.11
73112;HTU21D;61301;51.956;5.876;2023-10-09T13:29:47;25.99;51.17
73112;HTU21D;61301;51.956;5.876;2023-10-09T13:32:13;25.97;51.44
73112;HTU21D;61301;51.956;5.876;2023-10-09T13:34:41;26.02;51.08
73112;HTU21D;61301;51.956;5.876;2023-10-09T13:37:14;25.90;51.21
73112;HTU21D;61301;51.956;5.876;2023-10-09T13:39:47;25.94;51.45
73112;HTU21D;61301;51.956;5.876;2023-10-09T13:42:19;25.96;51.37
73112;HTU21D;61301;51.956;5.876;2023-10-09T13:44:45;25.89;51.53
73112;HTU21D;61301;51.956;5.876;2023-10-09T13:47:14;25.89;51.53
73112;HTU21D;61301;51.956;5.876;2023-10-09T13:49:45;25.83;51.67
73112;HTU21D;61301;51.956;5.876;2023-10-09T13:52:11;25.83;51.62
73112;HTU21D;61301;51.956;5.876;2023-10-09T13:54:44;25.80;51.75
73112;HTU21D;61301;51.956;5.876;2023-10-09T13:57:14;25.82;51.79
73112;HTU21D;61301;51.956;5.876;2023-10-09T13:59:42;25.76;51.85
73112;HTU21D;61301;51.956;5.876;2023-10-09T14:02:14;25.87;51.62
73112;HTU21D;61301;51.956;5.876;2023-10-09T14:04:45;25.76;52.03
73112;HTU21D;61301;51.956;5.876;2023-10-09T14:07:14;25.78;52.03
73112;HTU21D;61301;51.956;5.876;2023-10-09T14:09:43;25.82;51.98
73112;HTU21D;61301;51.956;5.876;2023-10-09T14:12:09;25.79;51.93
73112;HTU21D;61301;51.956;5.876;2023-10-09T14:17:16;25.87;51.96
73112;HTU21D;61301;51.956;5.876;2023-10-09T14:19:47;25.87;52.01
73112;HTU21D;61301;51.956;5.876;2023-10-09T14:22:14;25.95;52.00
73112;HTU21D;61301;51.956;5.876;2023-10-09T14:24:48;25.93;51.89
73112;HTU21D;61301;51.956;5.876;2023-10-09T14:27:14;25.88;51.85
73112;HTU21D;61301;51.956;5.876;2023-10-09T14:29:47;25.84;52.03
73112;HTU21D;61301;51.956;5.876;2023-10-09T14:32:14;25.84;52.11
73112;HTU21D;61301;51.956;5.876;2023-10-09T14:34:44;25.89;52.16
73112;HTU21D;61301;51.956;5.876;2023-10-09T14:37:16;25.88;52.19
73112;HTU21D;61301;51.956;5.876;2023-10-09T14:39:43;25.84;51.95
73112;HTU21D;61301;51.956;5.876;2023-10-09T14:42:14;25.82;52.06
73112;HTU21D;61301;51.956;5.876;2023-10-09T14:44:41;25.81;52.00
73112;HTU21D;61301;51.956;5.876;2023-10-09T14:47:08;25.71;52.21
73112;HTU21D;61301;51.956;5.876;2023-10-09T14:49:34;25.72;52.34
73112;HTU21D;61301;51.956;5.876;2023-10-09T14:52:10;25.66;52.46
73112;HTU21D;61301;51.956;5.876;2023-10-09T14:54:36;25.71;52.51
73112;HTU21D;61301;51.956;5.876;2023-10-09T14:57:04;25.72;52.63
73112;HTU21D;61301;51.956;5.876;2023-10-09T14:59:33;25.69;52.49
73112;HTU21D;61301;51.956;5.876;2023-10-09T15:01:59;25.65;52.73
73112;HTU21D;61301;51.956;5.876;2023-10-09T15:04:25;25.67;52.57
73112;HTU21D;61301;51.956;5.876;2023-10-09T15:06:52;25.64;52.64
73112;HTU21D;61301;51.956;5.876;2023-10-09T15:09:18;25.72;52.65
73112;HTU21D;61301;51.956;5.876;2023-10-09T15:11:49;25.73;52.61
73112;HTU21D;61301;51.956;5.876;2023-10-09T15:14:15;25.79;52.56
73112;HTU21D;61301;51.956;5.876;2023-10-09T15:16:42;25.78;52.43
73112;HTU21D;61301;51.956;5.876;2023-10-09T15:19:11;25.80;52.53
73112;HTU21D;61301;51.956;5.876;2023-10-09T15:21:39;25.82;52.51
73112;HTU21D;61301;51.956;5.876;2023-10-09T15:24:12;25.78;52.46
73112;HTU21D;61301;51.956;5.876;2023-10-09T15:26:42;25.78;52.56
73112;HTU21D;61301;51.956;5.876;2023-10-09T15:29:08;25.86;52.38
73112;HTU21D;61301;51.956;5.876;2023-10-09T15:31:36;25.77;52.31
73112;HTU21D;61301;51.956;5.876;2023-10-09T15:34:02;25.71;52.51
73112;HTU21D;61301;51.956;5.876;2023-10-09T15:36:35;25.73;52.62
73112;HTU21D;61301;51.956;5.876;2023-10-09T15:39:01;25.67;52.49
73112;HTU21D;61301;51.956;5.876;2023-10-09T15:41:28;25.66;52.65
73112;HTU21D;61301;51.956;5.876;2023-10-09T15:43:57;25.64;52.65
73112;HTU21D;61301;51.956;5.876;2023-10-09T15:46:24;25.67;52.69
73112;HTU21D;61301;51.956;5.876;2023-10-09T15:48:52;25.67;52.75
73112;HTU21D;61301;51.956;5.876;2023-10-09T15:51:19;25.72;52.65
73112;HTU21D;61301;51.956;5.876;2023-10-09T15:53:46;25.72;52.71
73112;HTU21D;61301;51.956;5.876;2023-10-09T15:56:13;25.69;52.59
73112;HTU21D;61301;51.956;5.876;2023-10-09T15:58:40;25.66;52.62
73112;HTU21D;61301;51.956;5.876;2023-10-09T16:01:10;25.63;52.63
73112;HTU21D;61301;51.956;5.876;2023-10-09T16:03:40;25.61;52.69
73112;HTU21D;61301;51.956;5.876;2023-10-09T16:06:06;25.59;52.75
73112;HTU21D;61301;51.956;5.876;2023-10-09T16:08:38;25.58;52.81
73112;HTU21D;61301;51.956;5.876;2023-10-09T16:11:05;25.61;52.59